sensor_id;sensor_type;location;lat;lon;timestamp;pressure;altitude;pressure_sealevel;temperature;humidity
5651;BME280;40241;52.684;9.758;2022-10-16T00:01:26;100804.25;;;16.31;61.88
5651;BME280;40241;52.684;9.758;2022-10-16T00:03:52;100810.84;;;16.28;61.83
5651;BME280;40241;52.684;9.758;2022-10-16T00:06:19;100813.41;;;16.26;61.96
5651;BME280;40241;52.684;9.758;2022-10-16T00:08:46;100813.94;;;16.25;61.96
5651;BME280;40241;52.684;9.758;2022-10-16T00:11:15;100817.22;;;16.23;61.94
5651;BME280;40241;52.684;9.758;2022-10-16T00:13:42;100816.78;;;16.19;61.86
5651;BME280;40241;52.684;9.758;2022-10-16T00:16:08;100810.03;;;16.15;61.89
5651;BME280;40241;52.684;9.758;2022-10-16T00:18:34;100807.03;;;16.13;61.96
5651;BME280;40241;52.684;9.758;2022-10-16T00:21:04;100813.13;;;16.11;62.17
5651;BME280;40241;52.684;9.758;2022-10-16T00:23:31;100814.38;;;16.10;62.08
5651;BME280;40241;52.684;9.758;2022-10-16T00:25:58;100813.13;;;16.11;62.17
5651;BME280;40241;52.684;9.758;2022-10-16T00:28:24;100813.88;;;16.12;62.26
5651;BME280;40241;52.684;9.758;2022-10-16T00:30:50;100816.13;;;16.13;62.10
5651;BME280;40241;52.684;9.758;2022-10-16T00:33:16;100819.66;;;16.14;61.97
5651;BME280;40241;52.684;9.758;2022-10-16T00:35:41;100827.44;;;16.15;62.12
5651;BME280;40241;52.684;9.758;2022-10-16T00:38:06;100826.16;;;16.16;62.15
5651;BME280;40241;52.684;9.758;2022-10-16T00:40:32;100838.00;;;16.17;62.02
5651;BME280;40241;52.684;9.758;2022-10-16T00:42:57;100836.75;;;16.18;62.06
5651;BME280;40241;52.684;9.758;2022-10-16T00:45:23;100837.25;;;16.16;62.08
5651;BME280;40241;52.684;9.758;2022-10-16T00:47:49;100842.06;;;16.16;62.18
5651;BME280;40241;52.684;9.758;2022-10-16T00:50:30;100842.59;;;16.14;62.07
5651;BME280;40241;52.684;9.758;2022-10-16T00:52:57;100839.38;;;16.10;62.00
5651;BME280;40241;52.684;9.758;2022-10-16T00:55:24;100835.38;;;16.06;61.95
5651;BME280;40241;52.684;9.758;2022-10-16T00:57:51;100838.69;;;16.04;62.11
5651;BME280;40241;52.684;9.758;2022-10-16T01:00:19;100843.28;;;16.02;62.07
5651;BME280;40241;52.684;9.758;2022-10-16T01:02:52;100851.38;;;16.00;62.23
5651;BME280;40241;52.684;9.758;2022-10-16T01:05:17;100846.13;;;15.96;62.20
5651;BME280;40241;52.684;9.758;2022-10-16T01:07:58;100840.13;;;15.92;62.32
5651;BME280;40241;52.684;9.758;2022-10-16T01:10:38;100847.75;;;15.86;62.24
5651;BME280;40241;52.684;9.758;2022-10-16T01:13:10;100838.47;;;15.84;62.28
5651;BME280;40241;52.684;9.758;2022-10-16T01:15:48;100847.84;;;15.81;62.50
5651;BME280;40241;52.684;9.758;2022-10-16T01:20:50;100854.44;;;15.77;62.49
5651;BME280;40241;52.684;9.758;2022-10-16T01:26:20;100862.38;;;15.68;62.39
5651;BME280;40241;52.684;9.758;2022-10-16T01:29:08;100851.34;;;15.62;62.58
5651;BME280;40241;52.684;9.758;2022-10-16T01:31:40;100853.66;;;15.58;62.39
5651;BME280;40241;52.684;9.758;2022-10-16T01:34:14;100865.06;;;15.55;62.52
5651;BME280;40241;52.684;9.758;2022-10-16T01:36:45;100870.38;;;15.53;62.44
5651;BME280;40241;52.684;9.758;2022-10-16T01:39:13;100868.84;;;15.52;62.48
5651;BME280;40241;52.684;9.758;2022-10-16T01:41:46;100868.84;;;15.52;62.58
5651;BME280;40241;52.684;9.758;2022-10-16T01:44:23;100871.41;;;15.50;62.59
5651;BME280;40241;52.684;9.758;2022-10-16T01:46:52;100854.53;;;15.48;62.45
5651;BME280;40241;52.684;9.758;2022-10-16T01:49:19;100856.09;;;15.43;62.34
5651;BME280;40241;52.684;9.758;2022-10-16T01:51:48;100861.16;;;15.39;62.51
5651;BME280;40241;52.684;9.758;2022-10-16T01:54:16;100869.25;;;15.37;62.49
5651;BME280;40241;52.684;9.758;2022-10-16T01:56:44;100869.03;;;15.35;62.54
5651;BME280;40241;52.684;9.758;2022-10-16T01:59:13;100873.59;;;15.33;62.60
5651;BME280;40241;52.684;9.758;2022-10-16T02:01:44;100879.91;;;15.28;62.45
5651;BME280;40241;52.684;9.758;2022-10-16T02:04:33;100871.69;;;15.22;62.80
5651;BME280;40241;52.684;9.758;2022-10-16T02:06:59;100869.41;;;15.21;62.64
5651;BME280;40241;52.684;9.758;2022-10-16T02:09:25;100866.41;;;15.19;62.63
5651;BME280;40241;52.684;9.758;2022-10-16T02:11:54;100878.53;;;15.16;62.58
5651;BME280;40241;52.684;9.758;2022-10-16T02:14:21;100856.63;;;15.12;62.67
5651;BME280;40241;52.684;9.758;2022-10-16T02:16:49;100856.94;;;15.09;62.61
5651;BME280;40241;52.684;9.758;2022-10-16T02:19:17;100862.75;;;15.05;62.67
5651;BME280;40241;52.684;9.758;2022-10-16T02:21:56;100871.34;;;15.01;62.84
5651;BME280;40241;52.684;9.758;2022-10-16T02:27:23;100878.22;;;14.95;62.84
5651;BME280;40241;52.684;9.758;2022-10-16T02:29:59;100879.47;;;14.94;62.72
5651;BME280;40241;52.684;9.758;2022-10-16T02:32:30;100885.53;;;14.92;62.78
5651;BME280;40241;52.684;9.758;2022-10-16T02:34:58;100896.16;;;14.88;62.75
5651;BME280;40241;52.684;9.758;2022-10-16T02:37:25;100889.09;;;14.87;62.84
5651;BME280;40241;52.684;9.758;2022-10-16T02:39:52;100895.69;;;14.84;62.87
5651;BME280;40241;52.684;9.758;2022-10-16T02:42:18;100904.78;;;14.79;62.77
5651;BME280;40241;52.684;9.758;2022-10-16T02:44:44;100902.53;;;14.78;62.83
5651;BME280;40241;52.684;9.758;2022-10-16T02:47:09;100905.56;;;14.74;62.94
5651;BME280;40241;52.684;9.758;2022-10-16T02:49:34;100888.72;;;14.72;62.88
5651;BME280;40241;52.684;9.758;2022-10-16T02:52:00;100889.75;;;14.69;62.83
5651;BME280;40241;52.684;9.758;2022-10-16T02:54:25;100890.53;;;14.64;62.85
5651;BME280;40241;52.684;9.758;2022-10-16T02:56:50;100909.94;;;14.64;62.95
5651;BME280;40241;52.684;9.758;2022-10-16T02:59:16;100898.63;;;14.62;62.92
5651;BME280;40241;52.684;9.758;2022-10-16T03:01:42;100892.84;;;14.60;63.05
5651;BME280;40241;52.684;9.758;2022-10-16T03:04:07;100886.31;;;14.58;62.88
5651;BME280;40241;52.684;9.758;2022-10-16T03:06:32;100893.63;;;14.55;63.01
5651;BME280;40241;52.684;9.758;2022-10-16T03:08:58;100893.38;;;14.53;63.07
5651;BME280;40241;52.684;9.758;2022-10-16T03:11:23;100878.53;;;14.51;63.12
5651;BME280;40241;52.684;9.758;2022-10-16T03:13:48;100893.69;;;14.50;63.11
5651;BME280;40241;52.684;9.758;2022-10-16T03:16:14;100893.69;;;14.50;63.13
5651;BME280;40241;52.684;9.758;2022-10-16T03:18:39;100894.94;;;14.49;63.13
5651;BME280;40241;52.684;9.758;2022-10-16T03:21:04;100897.69;;;14.49;63.04
5651;BME280;40241;52.684;9.758;2022-10-16T03:23:30;100890.16;;;14.49;63.15
5651;BME280;40241;52.684;9.758;2022-10-16T03:25:55;100891.91;;;14.47;63.14
5651;BME280;40241;52.684;9.758;2022-10-16T03:28:20;100886.91;;;14.45;63.12
5651;BME280;40241;52.684;9.758;2022-10-16T03:30:46;100890.19;;;14.44;63.09
5651;BME280;40241;52.684;9.758;2022-10-16T03:33:11;100887.44;;;14.44;63.29
5651;BME280;40241;52.684;9.758;2022-10-16T03:35:37;100886.16;;;14.45;63.33
5651;BME280;40241;52.684;9.758;2022-10-16T03:38:03;100889.44;;;14.43;63.25
5651;BME280;40241;52.684;9.758;2022-10-16T03:40:28;100894.97;;;14.43;63.30
5651;BME280;40241;52.684;9.758;2022-10-16T03:42:54;100884.91;;;14.40;63.14
5651;BME280;40241;52.684;9.758;2022-10-16T03:45:22;100884.44;;;14.36;63.18
5651;BME280;40241;52.684;9.758;2022-10-16T03:47:47;100879.19;;;14.33;63.20
5651;BME280;40241;52.684;9.758;2022-10-16T03:50:12;100882.44;;;14.31;63.19
5651;BME280;40241;52.684;9.758;2022-10-16T03:52:38;100890.53;;;14.29;63.05
5651;BME280;40241;52.684;9.758;2022-10-16T03:55:03;100886.72;;;14.26;63.20
5651;BME280;40241;52.684;9.758;2022-10-16T03:57:29;100885.00;;;14.23;63.20
5651;BME280;40241;52.684;9.758;2022-10-16T03:59:54;100884.75;;;14.21;63.32
5651;BME280;40241;52.684;9.758;2022-10-16T04:02:19;100877.19;;;14.22;63.42
5651;BME280;40241;52.684;9.758;2022-10-16T04:04:45;100890.53;;;14.23;63.34
5651;BME280;40241;52.684;9.758;2022-10-16T04:07:10;100894.06;;;14.24;63.46
5651;BME280;40241;52.684;9.758;2022-10-16T04:09:35;100901.84;;;14.25;63.43
5651;BME280;40241;52.684;9.758;2022-10-16T04:12:01;100903.31;;;14.26;62.99
5651;BME280;40241;52.684;9.758;2022-10-16T04:14:26;100900.31;;;14.24;63.25
5651;BME280;40241;52.684;9.758;2022-10-16T04:16:51;100910.66;;;14.24;63.41
5651;BME280;40241;52.684;9.758;2022-10-16T04:19:17;100909.38;;;14.25;63.43
5651;BME280;40241;52.684;9.758;2022-10-16T04:21:42;100921.97;;;14.26;63.46
5651;BME280;40241;52.684;9.758;2022-10-16T04:24:07;100929.50;;;14.25;63.37
5651;BME280;40241;52.684;9.758;2022-10-16T04:26:33;100924.75;;;14.26;63.46
5651;BME280;40241;52.684;9.758;2022-10-16T04:28:58;100913.66;;;14.26;63.42
5651;BME280;40241;52.684;9.758;2022-10-16T04:31:23;100917.69;;;14.25;63.29
5651;BME280;40241;52.684;9.758;2022-10-16T04:33:49;100916.19;;;14.24;63.21
5651;BME280;40241;52.684;9.758;2022-10-16T04:36:14;100911.19;;;14.17;63.38
5651;BME280;40241;52.684;9.758;2022-10-16T04:38:39;100916.97;;;14.13;63.41
5651;BME280;40241;52.684;9.758;2022-10-16T04:41:06;100915.00;;;14.08;63.35
5651;BME280;40241;52.684;9.758;2022-10-16T04:43:31;100923.31;;;14.03;63.36
5651;BME280;40241;52.684;9.758;2022-10-16T04:45:57;100922.84;;;13.99;63.16
5651;BME280;40241;52.684;9.758;2022-10-16T04:48:22;100923.84;;;13.96;63.35
5651;BME280;40241;52.684;9.758;2022-10-16T04:50:48;100939.47;;;13.93;63.42
5651;BME280;40241;52.684;9.758;2022-10-16T04:53:13;100923.38;;;13.92;63.42
5651;BME280;40241;52.684;9.758;2022-10-16T04:55:39;100930.16;;;13.91;63.45
5651;BME280;40241;52.684;9.758;2022-10-16T04:58:06;100926.16;;;13.86;63.34
5651;BME280;40241;52.684;9.758;2022-10-16T05:00:31;100934.69;;;13.83;63.45
5651;BME280;40241;52.684;9.758;2022-10-16T05:02:57;100930.44;;;13.82;63.40
5651;BME280;40241;52.684;9.758;2022-10-16T05:05:24;100934.47;;;13.81;63.46
5651;BME280;40241;52.684;9.758;2022-10-16T05:07:50;100959.09;;;13.79;63.62
5651;BME280;40241;52.684;9.758;2022-10-16T05:10:16;100948.56;;;13.77;63.56
5651;BME280;40241;52.684;9.758;2022-10-16T05:12:42;100958.84;;;13.77;63.60
5651;BME280;40241;52.684;9.758;2022-10-16T05:15:07;100962.38;;;13.77;63.75
5651;BME280;40241;52.684;9.758;2022-10-16T05:17:33;100964.63;;;13.79;63.61
5651;BME280;40241;52.684;9.758;2022-10-16T05:19:58;100954.84;;;13.78;63.82
5651;BME280;40241;52.684;9.758;2022-10-16T05:22:24;100961.63;;;13.77;63.69
5651;BME280;40241;52.684;9.758;2022-10-16T05:24:49;100960.63;;;13.80;63.75
5651;BME280;40241;52.684;9.758;2022-10-16T05:27:14;100959.09;;;13.79;63.61
5651;BME280;40241;52.684;9.758;2022-10-16T05:29:45;100956.34;;;13.79;63.70
5651;BME280;40241;52.684;9.758;2022-10-16T05:32:11;100959.63;;;13.77;63.50
5651;BME280;40241;52.684;9.758;2022-10-16T05:34:36;100960.88;;;13.76;63.85
5651;BME280;40241;52.684;9.758;2022-10-16T05:37:02;100971.94;;;13.76;63.78
5651;BME280;40241;52.684;9.758;2022-10-16T05:39:27;100959.38;;;13.75;63.83
5651;BME280;40241;52.684;9.758;2022-10-16T05:41:53;100963.63;;;13.76;63.83
5651;BME280;40241;52.684;9.758;2022-10-16T05:44:18;100961.63;;;13.77;63.81
5651;BME280;40241;52.684;9.758;2022-10-16T05:46:43;100958.34;;;13.78;64.00
5651;BME280;40241;52.684;9.758;2022-10-16T05:49:10;100952.31;;;13.80;63.80
5651;BME280;40241;52.684;9.758;2022-10-16T05:51:36;100958.09;;;13.82;63.91
5651;BME280;40241;52.684;9.758;2022-10-16T05:54:01;100957.59;;;13.83;63.91
5651;BME280;40241;52.684;9.758;2022-10-16T05:56:26;100964.88;;;13.86;63.85
5651;BME280;40241;52.684;9.758;2022-10-16T05:58:52;100971.16;;;13.87;64.06
5651;BME280;40241;52.684;9.758;2022-10-16T06:01:18;100974.91;;;13.89;63.92
5651;BME280;40241;52.684;9.758;2022-10-16T06:03:45;100972.91;;;13.90;63.91
5651;BME280;40241;52.684;9.758;2022-10-16T06:06:16;100982.97;;;13.93;64.15
5651;BME280;40241;52.684;9.758;2022-10-16T06:08:43;100978.69;;;13.92;64.02
5651;BME280;40241;52.684;9.758;2022-10-16T06:11:11;100982.19;;;13.92;63.79
5651;BME280;40241;52.684;9.758;2022-10-16T06:13:37;100993.78;;;13.91;64.11
5651;BME280;40241;52.684;9.758;2022-10-16T06:16:03;100983.22;;;13.95;63.99
5651;BME280;40241;52.684;9.758;2022-10-16T06:18:28;100987.72;;;13.98;64.11
5651;BME280;40241;52.684;9.758;2022-10-16T06:20:55;100986.94;;;14.03;64.10
5651;BME280;40241;52.684;9.758;2022-10-16T06:23:21;100990.47;;;14.03;64.12
5651;BME280;40241;52.684;9.758;2022-10-16T06:25:46;100997.50;;;14.04;64.08
5651;BME280;40241;52.684;9.758;2022-10-16T06:28:13;100995.72;;;14.07;64.18
5651;BME280;40241;52.684;9.758;2022-10-16T06:30:39;100999.50;;;14.09;64.25
5651;BME280;40241;52.684;9.758;2022-10-16T06:33:04;101000.50;;;14.12;64.25
5651;BME280;40241;52.684;9.758;2022-10-16T06:35:29;101007.81;;;14.15;64.13
5651;BME280;40241;52.684;9.758;2022-10-16T06:37:57;101026.63;;;14.22;64.22
5651;BME280;40241;52.684;9.758;2022-10-16T06:40:22;101009.25;;;14.27;64.42
5651;BME280;40241;52.684;9.758;2022-10-16T06:42:47;101010.00;;;14.33;64.31
5651;BME280;40241;52.684;9.758;2022-10-16T06:45:13;101012.78;;;14.39;64.32
5651;BME280;40241;52.684;9.758;2022-10-16T06:47:38;101016.25;;;14.45;64.43
5651;BME280;40241;52.684;9.758;2022-10-16T06:50:04;101010.72;;;14.50;64.47
5651;BME280;40241;52.684;9.758;2022-10-16T06:52:31;101010.44;;;14.54;64.44
5651;BME280;40241;52.684;9.758;2022-10-16T06:54:57;101016.44;;;14.58;64.50
5651;BME280;40241;52.684;9.758;2022-10-16T06:57:22;101023.97;;;14.63;64.67
5651;BME280;40241;52.684;9.758;2022-10-16T06:59:47;101021.69;;;14.67;64.66
5651;BME280;40241;52.684;9.758;2022-10-16T07:02:13;101031.25;;;14.71;64.71
5651;BME280;40241;52.684;9.758;2022-10-16T07:04:38;101026.19;;;14.75;64.67
5651;BME280;40241;52.684;9.758;2022-10-16T07:07:03;101034.72;;;14.83;64.69
5651;BME280;40241;52.684;9.758;2022-10-16T07:09:29;101041.72;;;14.89;64.77
5651;BME280;40241;52.684;9.758;2022-10-16T07:11:54;101040.16;;;14.94;64.71
5651;BME280;40241;52.684;9.758;2022-10-16T07:14:20;101043.16;;;15.01;64.86
5651;BME280;40241;52.684;9.758;2022-10-16T07:16:47;101054.19;;;15.07;64.75
5651;BME280;40241;52.684;9.758;2022-10-16T07:19:13;101048.09;;;15.14;64.69
5651;BME280;40241;52.684;9.758;2022-10-16T07:21:40;101061.94;;;15.20;64.99
5651;BME280;40241;52.684;9.758;2022-10-16T07:24:10;101059.13;;;15.25;64.86
5651;BME280;40241;52.684;9.758;2022-10-16T07:26:37;101069.41;;;15.30;64.95
5651;BME280;40241;52.684;9.758;2022-10-16T07:29:04;101071.63;;;15.37;65.07
5651;BME280;40241;52.684;9.758;2022-10-16T07:31:30;101076.13;;;15.46;64.92
5651;BME280;40241;52.684;9.758;2022-10-16T07:33:58;101082.63;;;15.54;65.14
5651;BME280;40241;52.684;9.758;2022-10-16T07:36:24;101089.88;;;15.62;65.09
5651;BME280;40241;52.684;9.758;2022-10-16T07:38:49;101095.09;;;15.71;65.12
5651;BME280;40241;52.684;9.758;2022-10-16T07:41:16;101105.09;;;15.80;65.14
5651;BME280;40241;52.684;9.758;2022-10-16T07:43:46;101100.72;;;15.90;65.31
5651;BME280;40241;52.684;9.758;2022-10-16T07:46:12;101111.50;;;15.99;65.26
5651;BME280;40241;52.684;9.758;2022-10-16T07:48:37;101103.59;;;16.09;65.21
5651;BME280;40241;52.684;9.758;2022-10-16T07:51:04;101102.72;;;16.19;65.10
5651;BME280;40241;52.684;9.758;2022-10-16T07:53:31;101105.44;;;16.25;65.25
5651;BME280;40241;52.684;9.758;2022-10-16T07:55:58;101118.28;;;16.28;65.21
5651;BME280;40241;52.684;9.758;2022-10-16T07:58:23;101108.63;;;16.34;65.20
5651;BME280;40241;52.684;9.758;2022-10-16T08:00:49;101119.16;;;16.41;65.19
5651;BME280;40241;52.684;9.758;2022-10-16T08:03:14;101117.06;;;16.47;65.11
5651;BME280;40241;52.684;9.758;2022-10-16T08:05:39;101130.16;;;16.53;64.99
5651;BME280;40241;52.684;9.758;2022-10-16T08:08:04;101119.97;;;16.61;65.22
5651;BME280;40241;52.684;9.758;2022-10-16T08:10:30;101125.97;;;16.65;65.07
5651;BME280;40241;52.684;9.758;2022-10-16T08:12:56;101126.69;;;16.71;64.96
5651;BME280;40241;52.684;9.758;2022-10-16T08:15:22;101130.16;;;16.77;64.94
5651;BME280;40241;52.684;9.758;2022-10-16T08:17:57;101128.78;;;16.83;64.95
5651;BME280;40241;52.684;9.758;2022-10-16T08:20:23;101130.28;;;16.84;64.77
5651;BME280;40241;52.684;9.758;2022-10-16T08:22:49;101143.16;;;16.87;64.76
5651;BME280;40241;52.684;9.758;2022-10-16T08:25:14;101140.81;;;16.91;64.89
5651;BME280;40241;52.684;9.758;2022-10-16T08:27:39;101148.56;;;16.98;64.92
5651;BME280;40241;52.684;9.758;2022-10-16T08:30:05;101147.66;;;17.09;64.79
5651;BME280;40241;52.684;9.758;2022-10-16T08:32:31;101161.44;;;17.20;64.65
5651;BME280;40241;52.684;9.758;2022-10-16T08:34:56;101166.09;;;17.31;64.43
5651;BME280;40241;52.684;9.758;2022-10-16T08:37:21;101156.09;;;17.41;64.30
5651;BME280;40241;52.684;9.758;2022-10-16T08:39:46;101157.75;;;17.49;64.22
5651;BME280;40241;52.684;9.758;2022-10-16T08:42:20;101168.72;;;17.60;64.35
5651;BME280;40241;52.684;9.758;2022-10-16T08:45:03;101156.13;;;17.72;64.01
5651;BME280;40241;52.684;9.758;2022-10-16T08:48:10;101162.06;;;17.82;64.11
5651;BME280;40241;52.684;9.758;2022-10-16T08:50:27;101174.84;;;17.90;63.84
5651;BME280;40241;52.684;9.758;2022-10-16T08:52:55;101175.72;;;17.98;63.67
5651;BME280;40241;52.684;9.758;2022-10-16T08:55:33;101172.53;;;18.08;63.36
5651;BME280;40241;52.684;9.758;2022-10-16T08:58:02;101180.25;;;18.15;63.50
5651;BME280;40241;52.684;9.758;2022-10-16T09:00:27;101174.78;;;18.22;63.33
5651;BME280;40241;52.684;9.758;2022-10-16T09:03:07;101193.03;;;18.36;62.90
5651;BME280;40241;52.684;9.758;2022-10-16T09:14:29;101221.06;;;18.83;62.40
5651;BME280;40241;52.684;9.758;2022-10-16T09:17:27;101216.03;;;19.08;61.90
5651;BME280;40241;52.684;9.758;2022-10-16T09:25:34;101226.31;;;19.26;62.17
5651;BME280;40241;52.684;9.758;2022-10-16T09:28:00;101236.94;;;19.27;62.07
5651;BME280;40241;52.684;9.758;2022-10-16T09:30:28;101234.78;;;19.33;61.71
5651;BME280;40241;52.684;9.758;2022-10-16T09:32:54;101240.78;;;19.37;61.83
5651;BME280;40241;52.684;9.758;2022-10-16T09:35:27;101236.38;;;19.42;61.39
5651;BME280;40241;52.684;9.758;2022-10-16T09:37:56;101236.94;;;19.40;61.53
5651;BME280;40241;52.684;9.758;2022-10-16T09:40:42;101230.81;;;19.42;60.59
5651;BME280;40241;52.684;9.758;2022-10-16T09:46:09;101236.06;;;19.46;60.68
5651;BME280;40241;52.684;9.758;2022-10-16T09:48:49;101240.47;;;19.41;61.05
5651;BME280;40241;52.684;9.758;2022-10-16T09:51:30;101238.56;;;19.36;60.21
5651;BME280;40241;52.684;9.758;2022-10-16T09:53:59;101247.53;;;19.29;61.17
5651;BME280;40241;52.684;9.758;2022-10-16T09:56:30;101251.63;;;19.28;60.66
5651;BME280;40241;52.684;9.758;2022-10-16T09:59:00;101253.34;;;19.31;61.09
5651;BME280;40241;52.684;9.758;2022-10-16T10:01:37;101250.25;;;19.34;60.16
5651;BME280;40241;52.684;9.758;2022-10-16T10:04:04;101260.34;;;19.37;60.57
5651;BME280;40241;52.684;9.758;2022-10-16T10:06:35;101266.88;;;19.40;60.21
5651;BME280;40241;52.684;9.758;2022-10-16T10:11:53;101255.63;;;19.46;60.27
5651;BME280;40241;52.684;9.758;2022-10-16T10:14:22;101254.53;;;19.49;60.25
5651;BME280;40241;52.684;9.758;2022-10-16T10:16:50;101253.88;;;19.56;60.26
5651;BME280;40241;52.684;9.758;2022-10-16T10:19:17;101261.38;;;19.61;60.08
5651;BME280;40241;52.684;9.758;2022-10-16T10:21:43;101261.03;;;19.64;59.99
5651;BME280;40241;52.684;9.758;2022-10-16T10:24:16;101264.78;;;19.67;59.00
5651;BME280;40241;52.684;9.758;2022-10-16T10:26:54;101265.53;;;19.67;58.93
5651;BME280;40241;52.684;9.758;2022-10-16T10:35:17;101276.69;;;19.80;58.25
5651;BME280;40241;52.684;9.758;2022-10-16T10:37:59;101273.22;;;19.87;58.63
5651;BME280;40241;52.684;9.758;2022-10-16T10:40:51;101267.69;;;19.95;58.53
5651;BME280;40241;52.684;9.758;2022-10-16T10:46:50;101257.84;;;20.14;58.17
5651;BME280;40241;52.684;9.758;2022-10-16T10:55:33;101279.06;;;20.51;57.40
5651;BME280;40241;52.684;9.758;2022-10-16T11:01:09;101284.53;;;20.85;57.76
5651;BME280;40241;52.684;9.758;2022-10-16T11:06:47;101295.69;;;21.06;56.51
5651;BME280;40241;52.684;9.758;2022-10-16T11:09:26;101298.75;;;21.15;56.49
5651;BME280;40241;52.684;9.758;2022-10-16T11:11:58;101292.47;;;21.30;56.62
5651;BME280;40241;52.684;9.758;2022-10-16T11:17:22;101302.38;;;21.67;55.21
5651;BME280;40241;52.684;9.758;2022-10-16T11:20:00;101299.09;;;21.83;54.91
5651;BME280;40241;52.684;9.758;2022-10-16T11:22:38;101306.41;;;21.86;54.57
5651;BME280;40241;52.684;9.758;2022-10-16T11:25:20;101321.75;;;22.00;54.02
5651;BME280;40241;52.684;9.758;2022-10-16T11:30:42;101320.97;;;21.92;53.86
5651;BME280;40241;52.684;9.758;2022-10-16T11:38:14;101334.81;;;21.90;54.37
5651;BME280;40241;52.684;9.758;2022-10-16T11:40:43;101333.59;;;21.78;54.60
5651;BME280;40241;52.684;9.758;2022-10-16T11:43:17;101342.50;;;21.69;54.49
5651;BME280;40241;52.684;9.758;2022-10-16T11:45:53;101340.25;;;21.60;53.66
5651;BME280;40241;52.684;9.758;2022-10-16T11:48:50;101339.63;;;21.46;52.67
5651;BME280;40241;52.684;9.758;2022-10-16T11:51:33;101337.88;;;21.36;53.49
5651;BME280;40241;52.684;9.758;2022-10-16T11:54:26;101336.69;;;21.24;53.43
5651;BME280;40241;52.684;9.758;2022-10-16T11:56:55;101345.38;;;21.13;54.97
5651;BME280;40241;52.684;9.758;2022-10-16T11:59:35;101339.16;;;21.27;54.10
5651;BME280;40241;52.684;9.758;2022-10-16T12:02:30;101334.72;;;21.75;53.25
5651;BME280;40241;52.684;9.758;2022-10-16T12:05:46;101338.06;;;22.24;52.47
5651;BME280;40241;52.684;9.758;2022-10-16T12:08:17;101333.66;;;22.67;53.33
5651;BME280;40241;52.684;9.758;2022-10-16T12:10:45;101341.31;;;22.96;52.78
5651;BME280;40241;52.684;9.758;2022-10-16T12:13:36;101334.34;;;23.20;50.50
5651;BME280;40241;52.684;9.758;2022-10-16T12:18:38;101344.53;;;23.70;51.64
5651;BME280;40241;52.684;9.758;2022-10-16T12:21:04;101347.25;;;23.85;50.88
5651;BME280;40241;52.684;9.758;2022-10-16T12:23:54;101345.38;;;23.96;50.59
5651;BME280;40241;52.684;9.758;2022-10-16T12:26:29;101349.03;;;24.13;48.83
5651;BME280;40241;52.684;9.758;2022-10-16T12:28:55;101345.31;;;24.35;50.40
5651;BME280;40241;52.684;9.758;2022-10-16T12:31:23;101348.91;;;24.61;50.08
5651;BME280;40241;52.684;9.758;2022-10-16T12:36:29;101354.00;;;25.04;48.26
5651;BME280;40241;52.684;9.758;2022-10-16T12:38:54;101351.78;;;25.19;48.89
5651;BME280;40241;52.684;9.758;2022-10-16T12:41:31;101361.91;;;25.40;46.96
5651;BME280;40241;52.684;9.758;2022-10-16T12:43:58;101356.78;;;25.46;47.88
5651;BME280;40241;52.684;9.758;2022-10-16T12:51:41;101374.47;;;25.04;48.52
5651;BME280;40241;52.684;9.758;2022-10-16T12:54:19;101369.59;;;24.80;46.24
5651;BME280;40241;52.684;9.758;2022-10-16T13:11:03;101378.81;;;24.81;46.40
5651;BME280;40241;52.684;9.758;2022-10-16T13:13:49;101381.97;;;24.85;46.08
5651;BME280;40241;52.684;9.758;2022-10-16T13:27:22;101393.69;;;24.98;45.85
5651;BME280;40241;52.684;9.758;2022-10-16T13:29:53;101392.94;;;24.98;47.27
5651;BME280;40241;52.684;9.758;2022-10-16T13:32:21;101398.59;;;24.90;47.52
5651;BME280;40241;52.684;9.758;2022-10-16T13:34:47;101406.88;;;24.88;47.48
5651;BME280;40241;52.684;9.758;2022-10-16T13:37:24;101406.19;;;24.80;45.67
5651;BME280;40241;52.684;9.758;2022-10-16T13:39:50;101401.00;;;24.69;47.16
5651;BME280;40241;52.684;9.758;2022-10-16T13:42:24;101399.56;;;24.61;46.23
5651;BME280;40241;52.684;9.758;2022-10-16T13:44:52;101408.59;;;24.59;47.36
5651;BME280;40241;52.684;9.758;2022-10-16T13:49:47;101407.06;;;24.58;47.43
5651;BME280;40241;52.684;9.758;2022-10-16T13:52:23;101414.38;;;24.61;47.64
5651;BME280;40241;52.684;9.758;2022-10-16T13:54:48;101410.50;;;24.49;47.19
5651;BME280;40241;52.684;9.758;2022-10-16T13:57:15;101411.13;;;24.40;47.71
5651;BME280;40241;52.684;9.758;2022-10-16T13:59:41;101419.78;;;24.34;47.08
5651;BME280;40241;52.684;9.758;2022-10-16T14:02:25;101420.81;;;24.14;46.15
5651;BME280;40241;52.684;9.758;2022-10-16T14:04:52;101422.19;;;23.98;47.48
5651;BME280;40241;52.684;9.758;2022-10-16T14:07:28;101422.03;;;23.81;46.47
5651;BME280;40241;52.684;9.758;2022-10-16T14:09:54;101420.56;;;23.80;47.82
5651;BME280;40241;52.684;9.758;2022-10-16T14:12:22;101429.00;;;23.80;47.59
5651;BME280;40241;52.684;9.758;2022-10-16T14:14:52;101436.13;;;23.73;47.60
5651;BME280;40241;52.684;9.758;2022-10-16T14:17:22;101432.78;;;23.67;47.63
5651;BME280;40241;52.684;9.758;2022-10-16T14:19:50;101444.97;;;23.62;47.88
5651;BME280;40241;52.684;9.758;2022-10-16T14:25:30;101441.25;;;23.52;46.77
5651;BME280;40241;52.684;9.758;2022-10-16T14:28:14;101438.44;;;23.45;46.90
5651;BME280;40241;52.684;9.758;2022-10-16T14:33:32;101448.00;;;23.34;47.02
5651;BME280;40241;52.684;9.758;2022-10-16T14:38:35;101460.34;;;23.24;47.87
5651;BME280;40241;52.684;9.758;2022-10-16T14:41:01;101457.69;;;23.18;47.74
5651;BME280;40241;52.684;9.758;2022-10-16T14:43:53;101463.88;;;23.09;47.02
5651;BME280;40241;52.684;9.758;2022-10-16T14:46:22;101471.91;;;23.05;48.14
5651;BME280;40241;52.684;9.758;2022-10-16T14:49:03;101472.84;;;23.00;47.75
5651;BME280;40241;52.684;9.758;2022-10-16T14:51:30;101481.47;;;22.94;48.42
5651;BME280;40241;52.684;9.758;2022-10-16T14:53:55;101473.22;;;22.89;48.37
5651;BME280;40241;52.684;9.758;2022-10-16T14:56:27;101476.38;;;22.78;48.90
5651;BME280;40241;52.684;9.758;2022-10-16T14:58:54;101474.13;;;22.69;49.17